sensor_id;sensor_type;location;lat;lon;timestamp;pressure;altitude;pressure_sealevel;temperature;humidity
77702;BME280;66868;42.708;23.404;2023-10-19T00:01:14;95293.00;;;8.46;nan
77702;BME280;66868;42.708;23.404;2023-10-19T00:03:41;95254.59;;;8.22;nan
77702;BME280;66868;42.708;23.404;2023-10-19T00:06:06;95283.25;;;8.38;nan
77702;BME280;66868;42.708;23.404;2023-10-19T00:08:32;95257.78;;;8.25;nan
77702;BME280;66868;42.708;23.404;2023-10-19T00:11:07;95269.09;;;8.35;nan
77702;BME280;66868;42.708;23.404;2023-10-19T00:13:46;95280.97;;;8.33;nan
77702;BME280;66868;42.708;23.404;2023-10-19T00:16:14;95251.19;;;8.23;nan
77702;BME280;66868;42.708;23.404;2023-10-19T00:18:48;95264.47;;;8.26;nan
77702;BME280;66868;42.708;23.404;2023-10-19T00:21:14;95267.72;;;8.28;nan
77702;BME280;66868;42.708;23.404;2023-10-19T00:23:51;95251.47;;;8.17;nan
77702;BME280;66868;42.708;23.404;2023-10-19T00:26:20;95262.22;;;8.20;nan
77702;BME280;66868;42.708;23.404;2023-10-19T00:28:46;95242.75;;;8.05;nan
77702;BME280;66868;42.708;23.404;2023-10-19T00:31:14;95262.50;;;8.14;nan
77702;BME280;66868;42.708;23.404;2023-10-19T00:33:40;95247.69;;;8.08;nan
77702;BME280;66868;42.708;23.404;2023-10-19T00:36:10;95262.72;;;8.10;nan
77702;BME280;66868;42.708;23.404;2023-10-19T00:38:39;95257.06;;;8.05;nan
77702;BME280;66868;42.708;23.404;2023-10-19T00:41:13;95225.09;;;7.88;nan
77702;BME280;66868;42.708;23.404;2023-10-19T00:43:44;95256.41;;;8.01;nan
77702;BME280;66868;42.708;23.404;2023-10-19T00:46:11;95219.88;;;7.74;nan
77702;BME280;66868;42.708;23.404;2023-10-19T00:48:45;95252.09;;;7.86;nan
77702;BME280;66868;42.708;23.404;2023-10-19T00:51:13;95225.78;;;7.73;nan
77702;BME280;66868;42.708;23.404;2023-10-19T00:53:56;95245.06;;;7.74;nan
77702;BME280;66868;42.708;23.404;2023-10-19T00:56:24;95212.81;;;7.44;nan
77702;BME280;66868;42.708;23.404;2023-10-19T00:58:57;95244.03;;;7.59;nan
77702;BME280;66868;42.708;23.404;2023-10-19T01:01:28;95243.16;;;7.60;nan
77702;BME280;66868;42.708;23.404;2023-10-19T01:03:54;95245.53;;;7.63;nan
77702;BME280;66868;42.708;23.404;2023-10-19T01:06:24;95252.38;;;7.61;nan
77702;BME280;66868;42.708;23.404;2023-10-19T01:08:50;95216.22;;;7.43;nan
77702;BME280;66868;42.708;23.404;2023-10-19T01:11:17;95244.53;;;7.48;nan
77702;BME280;66868;42.708;23.404;2023-10-19T01:13:46;95238.69;;;7.48;nan
77702;BME280;66868;42.708;23.404;2023-10-19T01:16:16;95248.25;;;7.59;nan
77702;BME280;66868;42.708;23.404;2023-10-19T01:18:51;95173.16;;;7.12;nan
77702;BME280;66868;42.708;23.404;2023-10-19T01:21:22;95254.22;;;7.58;nan
77702;BME280;66868;42.708;23.404;2023-10-19T01:23:50;95254.94;;;7.60;nan
77702;BME280;66868;42.708;23.404;2023-10-19T01:26:15;95249.28;;;7.54;nan
77702;BME280;66868;42.708;23.404;2023-10-19T01:28:47;95219.00;;;7.37;nan
77702;BME280;66868;42.708;23.404;2023-10-19T01:31:18;95230.38;;;7.46;nan
77702;BME280;66868;42.708;23.404;2023-10-19T01:33:56;95239.16;;;7.56;nan
77702;BME280;66868;42.708;23.404;2023-10-19T01:36:23;95238.47;;;7.52;nan
77702;BME280;66868;42.708;23.404;2023-10-19T01:38:50;95246.25;;;7.48;nan
77702;BME280;66868;42.708;23.404;2023-10-19T01:41:24;95249.59;;;7.48;nan
77702;BME280;66868;42.708;23.404;2023-10-19T01:43:52;95246.34;;;7.45;nan
77702;BME280;66868;42.708;23.404;2023-10-19T01:46:26;95247.19;;;7.45;nan
77702;BME280;66868;42.708;23.404;2023-10-19T01:48:57;95241.72;;;7.36;nan
77702;BME280;66868;42.708;23.404;2023-10-19T01:51:24;95246.56;;;7.40;nan
77702;BME280;66868;42.708;23.404;2023-10-19T01:53:52;95222.94;;;7.24;nan
77702;BME280;66868;42.708;23.404;2023-10-19T01:56:18;95254.25;;;7.37;nan
77702;BME280;66868;42.708;23.404;2023-10-19T01:58:45;95256.91;;;7.34;nan
77702;BME280;66868;42.708;23.404;2023-10-19T02:01:15;95252.81;;;7.32;nan
77702;BME280;66868;42.708;23.404;2023-10-19T02:03:59;95223.59;;;7.09;nan
77702;BME280;66868;42.708;23.404;2023-10-19T02:06:27;95230.97;;;7.14;nan
77702;BME280;66868;42.708;23.404;2023-10-19T02:09:13;95254.81;;;7.25;nan
77702;BME280;66868;42.708;23.404;2023-10-19T02:11:45;95235.31;;;7.10;nan
77702;BME280;66868;42.708;23.404;2023-10-19T02:14:15;95251.34;;;7.07;nan
77702;BME280;66868;42.708;23.404;2023-10-19T02:16:42;95219.22;;;6.94;nan
77702;BME280;66868;42.708;23.404;2023-10-19T02:19:09;95258.13;;;7.07;nan
77702;BME280;66868;42.708;23.404;2023-10-19T02:21:34;95259.09;;;7.03;nan
77702;BME280;66868;42.708;23.404;2023-10-19T02:24:06;95255.59;;;7.07;nan
77702;BME280;66868;42.708;23.404;2023-10-19T02:26:33;95259.66;;;7.09;nan
77702;BME280;66868;42.708;23.404;2023-10-19T02:28:59;95262.13;;;7.11;nan
77702;BME280;66868;42.708;23.404;2023-10-19T02:31:25;95238.38;;;6.98;nan
77702;BME280;66868;42.708;23.404;2023-10-19T02:33:51;95250.97;;;6.98;nan
77702;BME280;66868;42.708;23.404;2023-10-19T02:36:20;95255.44;;;7.10;nan
77702;BME280;66868;42.708;23.404;2023-10-19T02:38:46;95252.88;;;7.12;nan
77702;BME280;66868;42.708;23.404;2023-10-19T02:41:18;95244.63;;;7.08;nan
77702;BME280;66868;42.708;23.404;2023-10-19T02:43:49;95250.47;;;7.08;nan
77702;BME280;66868;42.708;23.404;2023-10-19T02:46:17;95244.63;;;7.08;nan
77702;BME280;66868;42.708;23.404;2023-10-19T02:48:45;95245.63;;;7.04;nan
77702;BME280;66868;42.708;23.404;2023-10-19T02:51:13;95245.91;;;6.98;nan
77702;BME280;66868;42.708;23.404;2023-10-19T02:53:41;95245.91;;;6.98;nan
77702;BME280;66868;42.708;23.404;2023-10-19T02:56:14;95234.84;;;6.82;nan
77702;BME280;66868;42.708;23.404;2023-10-19T02:58:45;95251.94;;;6.94;nan
77702;BME280;66868;42.708;23.404;2023-10-19T03:01:19;95244.53;;;6.91;nan
77702;BME280;66868;42.708;23.404;2023-10-19T03:03:54;95252.94;;;6.90;nan
77702;BME280;66868;42.708;23.404;2023-10-19T03:06:21;95241.13;;;6.92;nan
77702;BME280;66868;42.708;23.404;2023-10-19T03:08:50;95217.56;;;6.74;nan
77702;BME280;66868;42.708;23.404;2023-10-19T03:11:25;95246.56;;;6.83;nan
77702;BME280;66868;42.708;23.404;2023-10-19T03:13:53;95248.31;;;6.81;nan
77702;BME280;66868;42.708;23.404;2023-10-19T03:16:18;95242.91;;;6.70;nan
77702;BME280;66868;42.708;23.404;2023-10-19T03:18:45;95242.84;;;6.71;nan
77702;BME280;66868;42.708;23.404;2023-10-19T03:21:10;95243.78;;;6.69;nan
77702;BME280;66868;42.708;23.404;2023-10-19T03:23:36;95244.56;;;6.50;nan
77702;BME280;66868;42.708;23.404;2023-10-19T03:26:04;95239.91;;;6.41;nan
77702;BME280;66868;42.708;23.404;2023-10-19T03:28:53;95244.91;;;6.41;nan
77702;BME280;66868;42.708;23.404;2023-10-19T03:31:23;95201.41;;;6.19;nan
77702;BME280;66868;42.708;23.404;2023-10-19T03:33:51;95244.69;;;6.47;nan
77702;BME280;66868;42.708;23.404;2023-10-19T03:36:23;95162.06;;;5.98;nan
77702;BME280;66868;42.708;23.404;2023-10-19T03:38:49;95219.16;;;6.36;nan
77702;BME280;66868;42.708;23.404;2023-10-19T03:41:17;95224.66;;;6.44;nan
77702;BME280;66868;42.708;23.404;2023-10-19T03:43:50;95233.00;;;6.46;nan
77702;BME280;66868;42.708;23.404;2023-10-19T03:46:18;95210.47;;;6.23;nan
77702;BME280;66868;42.708;23.404;2023-10-19T03:49:03;95233.47;;;6.34;nan
77702;BME280;66868;42.708;23.404;2023-10-19T03:51:38;95205.53;;;6.20;nan
77702;BME280;66868;42.708;23.404;2023-10-19T03:54:23;95224.91;;;6.38;nan
77702;BME280;66868;42.708;23.404;2023-10-19T03:56:49;95208.19;;;6.17;nan
77702;BME280;66868;42.708;23.404;2023-10-19T03:59:16;95221.41;;;6.22;nan
77702;BME280;66868;42.708;23.404;2023-10-19T04:01:42;95215.72;;;6.17;nan
77702;BME280;66868;42.708;23.404;2023-10-19T04:04:09;95219.69;;;6.22;nan
77702;BME280;66868;42.708;23.404;2023-10-19T04:06:35;95195.13;;;6.09;nan
77702;BME280;66868;42.708;23.404;2023-10-19T04:09:00;95220.34;;;6.28;nan
77702;BME280;66868;42.708;23.404;2023-10-19T04:11:26;95223.78;;;6.25;nan
77702;BME280;66868;42.708;23.404;2023-10-19T04:13:58;95228.47;;;6.12;nan
77702;BME280;66868;42.708;23.404;2023-10-19T04:16:28;95196.91;;;5.84;nan
77702;BME280;66868;42.708;23.404;2023-10-19T04:18:54;95235.50;;;6.04;nan
77702;BME280;66868;42.708;23.404;2023-10-19T04:21:19;95222.19;;;6.02;nan
77702;BME280;66868;42.708;23.404;2023-10-19T04:23:45;95234.56;;;6.07;nan
77702;BME280;66868;42.708;23.404;2023-10-19T04:26:12;95200.88;;;5.91;nan
77702;BME280;66868;42.708;23.404;2023-10-19T04:28:40;95233.63;;;6.09;nan
77702;BME280;66868;42.708;23.404;2023-10-19T04:31:18;95222.00;;;6.07;nan
77702;BME280;66868;42.708;23.404;2023-10-19T04:33:44;95218.31;;;5.94;nan
77702;BME280;66868;42.708;23.404;2023-10-19T04:36:15;95217.13;;;5.81;nan
77702;BME280;66868;42.708;23.404;2023-10-19T04:38:41;95221.97;;;5.87;nan
77702;BME280;66868;42.708;23.404;2023-10-19T04:41:10;95154.59;;;5.53;nan
77702;BME280;66868;42.708;23.404;2023-10-19T04:43:36;95214.19;;;5.93;nan
77702;BME280;66868;42.708;23.404;2023-10-19T04:46:10;95206.53;;;5.96;nan
77702;BME280;66868;42.708;23.404;2023-10-19T04:48:41;95180.34;;;5.79;nan
77702;BME280;66868;42.708;23.404;2023-10-19T04:51:08;95214.13;;;5.94;nan
77702;BME280;66868;42.708;23.404;2023-10-19T04:53:35;95205.03;;;5.92;nan
77702;BME280;66868;42.708;23.404;2023-10-19T04:56:00;95204.41;;;5.85;nan
77702;BME280;66868;42.708;23.404;2023-10-19T04:58:27;95166.44;;;5.71;nan
77702;BME280;66868;42.708;23.404;2023-10-19T05:00:53;95186.88;;;5.84;nan
77702;BME280;66868;42.708;23.404;2023-10-19T05:03:19;95209.59;;;6.02;nan
77702;BME280;66868;42.708;23.404;2023-10-19T05:05:45;95206.03;;;6.08;nan
77702;BME280;66868;42.708;23.404;2023-10-19T05:08:11;95214.34;;;6.10;nan
77702;BME280;66868;42.708;23.404;2023-10-19T05:10:36;95211.13;;;6.06;nan
77702;BME280;66868;42.708;23.404;2023-10-19T05:13:02;95186.25;;;6.00;nan
77702;BME280;66868;42.708;23.404;2023-10-19T05:15:29;95222.41;;;6.18;nan
77702;BME280;66868;42.708;23.404;2023-10-19T05:17:54;95208.13;;;6.18;nan
77702;BME280;66868;42.708;23.404;2023-10-19T05:20:19;95212.34;;;6.18;nan
77702;BME280;66868;42.708;23.404;2023-10-19T05:22:47;95203.41;;;6.11;nan
77702;BME280;66868;42.708;23.404;2023-10-19T05:25:12;95215.53;;;6.21;nan
77702;BME280;66868;42.708;23.404;2023-10-19T05:27:38;95222.03;;;6.27;nan
77702;BME280;66868;42.708;23.404;2023-10-19T05:30:05;95176.06;;;6.03;nan
77702;BME280;66868;42.708;23.404;2023-10-19T05:32:31;95205.31;;;6.26;nan
77702;BME280;66868;42.708;23.404;2023-10-19T05:34:57;95219.88;;;6.38;nan
77702;BME280;66868;42.708;23.404;2023-10-19T05:37:23;95217.31;;;6.40;nan
77702;BME280;66868;42.708;23.404;2023-10-19T05:39:50;95229.31;;;6.53;nan
77702;BME280;66868;42.708;23.404;2023-10-19T05:42:17;95229.09;;;6.59;nan
77702;BME280;66868;42.708;23.404;2023-10-19T05:44:43;95228.03;;;6.65;nan
77702;BME280;66868;42.708;23.404;2023-10-19T05:47:08;95213.13;;;6.60;nan
77702;BME280;66868;42.708;23.404;2023-10-19T05:49:33;95199.16;;;6.53;nan
77702;BME280;66868;42.708;23.404;2023-10-19T05:51:59;95197.75;;;6.66;nan
77702;BME280;66868;42.708;23.404;2023-10-19T05:54:24;95229.44;;;6.91;nan
77702;BME280;66868;42.708;23.404;2023-10-19T05:56:50;95231.75;;;6.95;nan
77702;BME280;66868;42.708;23.404;2023-10-19T05:59:17;95235.47;;;7.07;nan
77702;BME280;66868;42.708;23.404;2023-10-19T06:01:42;95217.63;;;6.93;nan
77702;BME280;66868;42.708;23.404;2023-10-19T06:04:11;95241.44;;;7.23;nan
77702;BME280;66868;42.708;23.404;2023-10-19T06:06:38;95239.41;;;7.31;nan
77702;BME280;66868;42.708;23.404;2023-10-19T06:09:05;95239.81;;;7.41;nan
77702;BME280;66868;42.708;23.404;2023-10-19T06:11:33;95228.09;;;7.59;nan
77702;BME280;66868;42.708;23.404;2023-10-19T06:13:59;95239.13;;;7.75;nan
77702;BME280;66868;42.708;23.404;2023-10-19T06:16:25;95242.13;;;7.83;nan
77702;BME280;66868;42.708;23.404;2023-10-19T06:18:50;95223.53;;;7.85;nan
77702;BME280;66868;42.708;23.404;2023-10-19T06:21:19;95232.97;;;7.99;nan
77702;BME280;66868;42.708;23.404;2023-10-19T06:23:44;95225.31;;;8.00;nan
77702;BME280;66868;42.708;23.404;2023-10-19T06:26:10;95222.53;;;8.07;nan
77702;BME280;66868;42.708;23.404;2023-10-19T06:28:40;95231.66;;;8.09;nan
77702;BME280;66868;42.708;23.404;2023-10-19T06:31:06;95229.38;;;8.22;nan
77702;BME280;66868;42.708;23.404;2023-10-19T06:33:32;95223.41;;;8.41;nan
77702;BME280;66868;42.708;23.404;2023-10-19T06:36:02;95221.69;;;8.59;nan
77702;BME280;66868;42.708;23.404;2023-10-19T06:38:29;95193.59;;;8.50;nan
77702;BME280;66868;42.708;23.404;2023-10-19T06:40:54;95236.06;;;8.74;nan
77702;BME280;66868;42.708;23.404;2023-10-19T06:43:21;95235.53;;;8.85;nan
77702;BME280;66868;42.708;23.404;2023-10-19T06:45:49;95224.84;;;8.80;nan
77702;BME280;66868;42.708;23.404;2023-10-19T06:48:15;95243.72;;;8.90;nan
77702;BME280;66868;42.708;23.404;2023-10-19T06:50:40;95228.97;;;8.98;nan
77702;BME280;66868;42.708;23.404;2023-10-19T06:53:06;95247.94;;;9.22;nan
77702;BME280;66868;42.708;23.404;2023-10-19T06:55:31;95231.91;;;9.23;nan
77702;BME280;66868;42.708;23.404;2023-10-19T06:57:58;95238.13;;;9.49;nan
77702;BME280;66868;42.708;23.404;2023-10-19T07:00:24;95238.06;;;9.51;nan
77702;BME280;66868;42.708;23.404;2023-10-19T07:02:55;95233.00;;;9.51;nan
77702;BME280;66868;42.708;23.404;2023-10-19T07:05:21;95199.00;;;9.41;nan
77702;BME280;66868;42.708;23.404;2023-10-19T07:07:49;95220.84;;;9.57;nan
77702;BME280;66868;42.708;23.404;2023-10-19T07:10:17;95221.59;;;9.75;nan
77702;BME280;66868;42.708;23.404;2023-10-19T07:12:48;95214.31;;;10.00;nan
77702;BME280;66868;42.708;23.404;2023-10-19T07:15:14;95211.59;;;10.19;nan
77702;BME280;66868;42.708;23.404;2023-10-19T07:17:43;95216.09;;;10.30;nan
77702;BME280;66868;42.708;23.404;2023-10-19T07:20:10;95188.41;;;10.27;nan
77702;BME280;66868;42.708;23.404;2023-10-19T07:22:50;95205.47;;;10.53;nan
77702;BME280;66868;42.708;23.404;2023-10-19T07:25:16;95193.28;;;10.59;nan
77702;BME280;66868;42.708;23.404;2023-10-19T07:27:46;95220.63;;;10.83;nan
77702;BME280;66868;42.708;23.404;2023-10-19T07:30:11;95230.31;;;10.76;nan
77702;BME280;66868;42.708;23.404;2023-10-19T07:32:40;95212.13;;;10.84;nan
77702;BME280;66868;42.708;23.404;2023-10-19T07:35:06;95221.63;;;10.94;nan
77702;BME280;66868;42.708;23.404;2023-10-19T07:37:31;95219.00;;;11.10;nan
77702;BME280;66868;42.708;23.404;2023-10-19T07:39:57;95176.38;;;10.74;nan
77702;BME280;66868;42.708;23.404;2023-10-19T07:42:23;95212.47;;;10.92;nan
77702;BME280;66868;42.708;23.404;2023-10-19T07:44:49;95207.00;;;10.99;nan
77702;BME280;66868;42.708;23.404;2023-10-19T07:47:15;95208.88;;;10.96;nan
77702;BME280;66868;42.708;23.404;2023-10-19T07:49:40;95228.16;;;11.13;nan
77702;BME280;66868;42.708;23.404;2023-10-19T07:52:07;95227.81;;;11.19;nan
77702;BME280;66868;42.708;23.404;2023-10-19T07:54:33;95237.41;;;11.14;nan
77702;BME280;66868;42.708;23.404;2023-10-19T07:56:59;95231.59;;;11.12;nan
77702;BME280;66868;42.708;23.404;2023-10-19T07:59:29;95227.94;;;10.87;nan
77702;BME280;66868;42.708;23.404;2023-10-19T08:01:54;95148.66;;;10.29;nan
77702;BME280;66868;42.708;23.404;2023-10-19T08:04:19;95225.59;;;10.70;nan
77702;BME280;66868;42.708;23.404;2023-10-19T08:06:45;95237.00;;;10.77;nan
77702;BME280;66868;42.708;23.404;2023-10-19T08:09:12;95235.19;;;10.79;nan
77702;BME280;66868;42.708;23.404;2023-10-19T08:11:38;95165.28;;;10.33;nan
77702;BME280;66868;42.708;23.404;2023-10-19T08:14:03;95234.75;;;10.73;nan
77702;BME280;66868;42.708;23.404;2023-10-19T08:16:30;95239.63;;;10.76;nan
77702;BME280;66868;42.708;23.404;2023-10-19T08:18:57;95207.16;;;10.68;nan
77702;BME280;66868;42.708;23.404;2023-10-19T08:21:22;95224.81;;;10.98;nan
77702;BME280;66868;42.708;23.404;2023-10-19T08:23:48;95217.41;;;11.09;nan
77702;BME280;66868;42.708;23.404;2023-10-19T08:26:13;95218.38;;;11.21;nan
77702;BME280;66868;42.708;23.404;2023-10-19T08:28:40;95212.06;;;11.28;nan
77702;BME280;66868;42.708;23.404;2023-10-19T08:31:08;95216.13;;;11.30;nan
77702;BME280;66868;42.708;23.404;2023-10-19T08:33:35;95217.47;;;11.50;nan
77702;BME280;66868;42.708;23.404;2023-10-19T08:36:04;95213.84;;;11.54;nan
77702;BME280;66868;42.708;23.404;2023-10-19T08:38:30;95203.50;;;11.57;nan
77702;BME280;66868;42.708;23.404;2023-10-19T08:40:56;95223.50;;;11.76;nan
77702;BME280;66868;42.708;23.404;2023-10-19T08:43:23;95225.19;;;11.89;nan
77702;BME280;66868;42.708;23.404;2023-10-19T08:45:49;95212.19;;;12.08;nan
77702;BME280;66868;42.708;23.404;2023-10-19T08:48:14;95213.75;;;12.23;nan
77702;BME280;66868;42.708;23.404;2023-10-19T08:50:40;95220.69;;;12.34;nan
77702;BME280;66868;42.708;23.404;2023-10-19T08:53:08;95227.66;;;12.57;nan
77702;BME280;66868;42.708;23.404;2023-10-19T08:55:34;95187.81;;;12.58;nan
77702;BME280;66868;42.708;23.404;2023-10-19T08:58:00;95226.47;;;12.88;nan
77702;BME280;66868;42.708;23.404;2023-10-19T09:00:26;95232.16;;;13.04;nan
77702;BME280;66868;42.708;23.404;2023-10-19T09:02:55;95210.22;;;13.03;nan
77702;BME280;66868;42.708;23.404;2023-10-19T09:05:24;95230.56;;;13.16;nan
77702;BME280;66868;42.708;23.404;2023-10-19T09:07:53;95180.53;;;13.04;nan
77702;BME280;66868;42.708;23.404;2023-10-19T09:10:22;95212.72;;;13.41;nan
77702;BME280;66868;42.708;23.404;2023-10-19T09:13:08;95206.28;;;13.61;nan
77702;BME280;66868;42.708;23.404;2023-10-19T09:15:38;95201.78;;;13.77;nan
77702;BME280;66868;42.708;23.404;2023-10-19T09:18:17;95195.41;;;13.95;nan
77702;BME280;66868;42.708;23.404;2023-10-19T09:20:46;95184.28;;;14.20;nan
77702;BME280;66868;42.708;23.404;2023-10-19T09:23:34;95193.94;;;14.63;nan
77702;BME280;66868;42.708;23.404;2023-10-19T09:26:01;95183.56;;;14.88;nan
77702;BME280;66868;42.708;23.404;2023-10-19T09:28:34;95187.44;;;15.16;nan
77702;BME280;66868;42.708;23.404;2023-10-19T09:31:01;95167.59;;;15.30;nan
77702;BME280;66868;42.708;23.404;2023-10-19T09:33:27;95174.34;;;15.54;nan
77702;BME280;66868;42.708;23.404;2023-10-19T09:35:53;95158.06;;;15.66;nan
77702;BME280;66868;42.708;23.404;2023-10-19T09:38:21;95167.50;;;15.97;nan
77702;BME280;66868;42.708;23.404;2023-10-19T09:40:50;95162.56;;;16.16;nan
77702;BME280;66868;42.708;23.404;2023-10-19T09:43:24;95161.97;;;16.45;nan
77702;BME280;66868;42.708;23.404;2023-10-19T09:45:53;95158.94;;;16.71;nan
77702;BME280;66868;42.708;23.404;2023-10-19T09:48:23;95155.19;;;16.96;nan
77702;BME280;66868;42.708;23.404;2023-10-19T09:50:55;95164.97;;;17.21;nan
77702;BME280;66868;42.708;23.404;2023-10-19T09:53:27;95153.88;;;17.42;nan
77702;BME280;66868;42.708;23.404;2023-10-19T09:55:58;95135.59;;;17.56;nan
77702;BME280;66868;42.708;23.404;2023-10-19T09:58:29;95128.00;;;17.75;nan
77702;BME280;66868;42.708;23.404;2023-10-19T10:00:57;95149.84;;;17.98;nan
77702;BME280;66868;42.708;23.404;2023-10-19T10:03:52;95128.16;;;18.02;nan
77702;BME280;66868;42.708;23.404;2023-10-19T10:09:17;95139.59;;;18.08;nan
77702;BME280;66868;42.708;23.404;2023-10-19T10:11:48;95136.50;;;18.04;nan
77702;BME280;66868;42.708;23.404;2023-10-19T10:14:25;95122.47;;;17.99;nan
77702;BME280;66868;42.708;23.404;2023-10-19T10:17:01;95121.69;;;17.98;nan
77702;BME280;66868;42.708;23.404;2023-10-19T10:19:26;95113.31;;;17.96;nan
77702;BME280;66868;42.708;23.404;2023-10-19T10:22:11;95107.38;;;17.86;nan
77702;BME280;66868;42.708;23.404;2023-10-19T10:24:43;95113.31;;;17.96;nan
77702;BME280;66868;42.708;23.404;2023-10-19T10:27:10;95114.66;;;18.00;nan
77702;BME280;66868;42.708;23.404;2023-10-19T10:29:54;95109.66;;;18.08;nan
77702;BME280;66868;42.708;23.404;2023-10-19T10:32:49;95107.38;;;18.05;nan
77702;BME280;66868;42.708;23.404;2023-10-19T10:38:03;95091.47;;;17.92;nan
77702;BME280;66868;42.708;23.404;2023-10-19T10:40:31;95089.31;;;18.07;nan
77702;BME280;66868;42.708;23.404;2023-10-19T10:43:06;95056.13;;;18.05;nan
77702;BME280;66868;42.708;23.404;2023-10-19T10:45:31;95076.22;;;18.20;nan
77702;BME280;66868;42.708;23.404;2023-10-19T10:47:57;95064.47;;;18.27;nan
77702;BME280;66868;42.708;23.404;2023-10-19T10:50:25;95056.91;;;18.35;nan
77702;BME280;66868;42.708;23.404;2023-10-19T10:52:50;95046.38;;;18.38;nan
77702;BME280;66868;42.708;23.404;2023-10-19T10:55:23;95046.88;;;18.51;nan
77702;BME280;66868;42.708;23.404;2023-10-19T10:57:50;95043.59;;;18.68;nan
77702;BME280;66868;42.708;23.404;2023-10-19T11:00:17;95048.41;;;18.90;nan
77702;BME280;66868;42.708;23.404;2023-10-19T11:02:46;95029.97;;;19.05;nan
77702;BME280;66868;42.708;23.404;2023-10-19T11:05:13;95026.69;;;19.30;nan
77702;BME280;66868;42.708;23.404;2023-10-19T11:10:29;95045.13;;;19.88;nan
77702;BME280;66868;42.708;23.404;2023-10-19T11:13:05;95022.84;;;19.97;nan
77702;BME280;66868;42.708;23.404;2023-10-19T11:15:33;95005.41;;;20.08;nan
77702;BME280;66868;42.708;23.404;2023-10-19T11:17:58;95004.13;;;20.30;nan
77702;BME280;66868;42.708;23.404;2023-10-19T11:20:25;95013.59;;;20.47;nan
77702;BME280;66868;42.708;23.404;2023-10-19T11:22:52;94995.72;;;20.46;nan
77702;BME280;66868;42.708;23.404;2023-10-19T11:25:23;95021.47;;;20.54;nan
77702;BME280;66868;42.708;23.404;2023-10-19T11:27:49;95011.78;;;20.73;nan
77702;BME280;66868;42.708;23.404;2023-10-19T11:30:29;95002.03;;;20.85;nan
77702;BME280;66868;42.708;23.404;2023-10-19T11:32:56;95000.00;;;21.05;nan
77702;BME280;66868;42.708;23.404;2023-10-19T11:35:26;94994.13;;;21.21;nan
77702;BME280;66868;42.708;23.404;2023-10-19T11:38:00;94993.66;;;21.25;nan
77702;BME280;66868;42.708;23.404;2023-10-19T11:40:27;94992.03;;;21.32;nan
77702;BME280;66868;42.708;23.404;2023-10-19T11:42:54;94991.09;;;21.41;nan
77702;BME280;66868;42.708;23.404;2023-10-19T11:45:24;94972.78;;;21.52;nan
77702;BME280;66868;42.708;23.404;2023-10-19T11:47:49;94977.28;;;21.83;nan
77702;BME280;66868;42.708;23.404;2023-10-19T11:50:16;94962.47;;;21.85;nan
77702;BME280;66868;42.708;23.404;2023-10-19T11:52:43;94974.41;;;22.02;nan
77702;BME280;66868;42.708;23.404;2023-10-19T11:55:14;94965.88;;;22.10;nan
77702;BME280;66868;42.708;23.404;2023-10-19T11:57:43;94975.63;;;22.38;nan
77702;BME280;66868;42.708;23.404;2023-10-19T12:00:12;94966.22;;;22.62;nan
77702;BME280;66868;42.708;23.404;2023-10-19T12:02:47;94969.84;;;22.92;nan
77702;BME280;66868;42.708;23.404;2023-10-19T12:05:12;94978.91;;;23.18;nan
77702;BME280;66868;42.708;23.404;2023-10-19T12:07:38;94965.25;;;23.32;nan
77702;BME280;66868;42.708;23.404;2023-10-19T12:10:06;94974.97;;;23.61;nan
77702;BME280;66868;42.708;23.404;2023-10-19T12:12:33;94980.59;;;24.02;nan
77702;BME280;66868;42.708;23.404;2023-10-19T12:14:59;94979.19;;;24.52;nan
77702;BME280;66868;42.708;23.404;2023-10-19T12:17:25;94975.59;;;25.12;nan
77702;BME280;66868;42.708;23.404;2023-10-19T12:19:53;94973.09;;;25.75;nan
77702;BME280;66868;42.708;23.404;2023-10-19T12:22:19;94958.88;;;26.48;nan
77702;BME280;66868;42.708;23.404;2023-10-19T12:24:46;94962.19;;;27.65;nan
77702;BME280;66868;42.708;23.404;2023-10-19T12:27:11;94967.34;;;28.77;nan
77702;BME280;66868;42.708;23.404;2023-10-19T12:29:39;94966.16;;;29.68;nan
77702;BME280;66868;42.708;23.404;2023-10-19T12:32:04;94972.28;;;30.98;nan
77702;BME280;66868;42.708;23.404;2023-10-19T12:34:30;94973.00;;;31.53;nan
77702;BME280;66868;42.708;23.404;2023-10-19T12:36:56;94985.63;;;32.62;nan
77702;BME280;66868;42.708;23.404;2023-10-19T12:39:24;94965.44;;;33.66;nan
77702;BME280;66868;42.708;23.404;2023-10-19T12:42:08;94964.72;;;35.09;nan
77702;BME280;66868;42.708;23.404;2023-10-19T12:44:34;94972.88;;;36.42;nan
77702;BME280;66868;42.708;23.404;2023-10-19T12:47:10;94983.00;;;37.64;nan
77702;BME280;66868;42.708;23.404;2023-10-19T12:49:38;94961.59;;;38.67;nan
77702;BME280;66868;42.708;23.404;2023-10-19T12:52:04;94974.69;;;39.71;nan
77702;BME280;66868;42.708;23.404;2023-10-19T12:54:33;94989.53;;;40.50;nan
77702;BME280;66868;42.708;23.404;2023-10-19T12:57:00;94982.31;;;40.80;nan
77702;BME280;66868;42.708;23.404;2023-10-19T12:59:26;94983.19;;;41.47;nan
77702;BME280;66868;42.708;23.404;2023-10-19T13:01:51;94973.94;;;42.14;nan
77702;BME280;66868;42.708;23.404;2023-10-19T13:04:20;94976.41;;;42.75;nan
77702;BME280;66868;42.708;23.404;2023-10-19T13:06:49;94980.84;;;43.34;nan
77702;BME280;66868;42.708;23.404;2023-10-19T13:09:15;94985.34;;;43.75;nan
77702;BME280;66868;42.708;23.404;2023-10-19T13:11:49;94983.69;;;44.01;nan
77702;BME280;66868;42.708;23.404;2023-10-19T13:14:33;94962.25;;;44.15;nan
77702;BME280;66868;42.708;23.404;2023-10-19T13:16:59;94972.47;;;44.35;nan
77702;BME280;66868;42.708;23.404;2023-10-19T13:19:25;94971.81;;;44.29;nan
77702;BME280;66868;42.708;23.404;2023-10-19T13:21:51;94972.06;;;44.50;nan
77702;BME280;66868;42.708;23.404;2023-10-19T13:24:18;94970.00;;;44.47;nan
77702;BME280;66868;42.708;23.404;2023-10-19T13:26:46;94958.00;;;44.14;nan
77702;BME280;66868;42.708;23.404;2023-10-19T13:29:13;94962.25;;;44.37;nan
77702;BME280;66868;42.708;23.404;2023-10-19T13:31:40;94946.88;;;44.73;nan
77702;BME280;66868;42.708;23.404;2023-10-19T13:34:05;94946.53;;;45.06;nan